Time;durP1;ratioP1;P1;durP2;ratioP2;P2;SDS_P1;SDS_P2;PMS_P1;PMS_P2;Temp;Humidity;BMP_temperature;BMP_pressure;BME280_temperature;BME280_humidity;BME280_pressure;Samples;Min_cycle;Max_cycle;Signal;HPM_P1;HPM_P2
2024/04/14 00:00:48;;;;;;;12.65;3.40;;;14.10;99.90;;;;;;5485597;26;20007;-85
2024/04/14 00:03:15;;;;;;;14.07;3.15;;;14.10;99.90;;;;;;5487420;26;20022;-86
2024/04/14 00:06:01;;;;;;;10.05;2.78;;;14.10;99.90;;;;;;5404047;26;20003;-85
2024/04/14 00:08:28;;;;;;;12.68;3.22;;;14.10;99.90;;;;;;5475206;26;20481;-86
2024/04/14 00:10:57;;;;;;;13.20;2.55;;;13.90;99.90;;;;;;5449285;26;20009;-85
2024/04/14 00:13:24;;;;;;;11.00;2.45;;;13.90;99.90;;;;;;5458568;26;20018;-86
2024/04/14 00:16:02;;;;;;;8.93;2.10;;;13.80;99.90;;;;;;5457674;26;20003;-86
2024/04/14 00:18:28;;;;;;;9.90;2.30;;;13.70;99.90;;;;;;5455163;26;20018;-85
2024/04/14 00:20:55;;;;;;;8.32;2.10;;;13.60;99.90;;;;;;5458259;26;20007;-85
2024/04/14 00:23:22;;;;;;;10.07;2.10;;;13.50;99.90;;;;;;5465936;26;20116;-86
2024/04/14 00:25:49;;;;;;;9.90;2.15;;;13.40;99.90;;;;;;5489951;26;20015;-86
2024/04/14 00:28:15;;;;;;;10.52;2.22;;;13.40;99.90;;;;;;5458537;26;20479;-86
2024/04/14 00:30:42;;;;;;;8.45;2.58;;;13.50;99.90;;;;;;5476478;26;20019;-85
2024/04/14 00:33:09;;;;;;;10.40;2.47;;;13.50;99.90;;;;;;5436195;26;20003;-85
2024/04/14 00:35:36;;;;;;;10.95;2.20;;;13.40;99.90;;;;;;5450009;26;20017;-85
2024/04/14 00:38:22;;;;;;;9.40;2.42;;;13.20;99.90;;;;;;5445400;26;20017;-85
2024/04/14 00:40:50;;;;;;;12.27;2.08;;;13.30;99.90;;;;;;5452227;26;20004;-86
2024/04/14 00:43:20;;;;;;;10.05;2.13;;;13.20;99.90;;;;;;5488488;26;20387;-85
2024/04/14 00:45:47;;;;;;;11.63;2.08;;;13.10;99.90;;;;;;5442218;26;20031;-86
2024/04/14 00:48:34;;;;;;;8.70;1.83;;;13.10;99.90;;;;;;5420571;26;20468;-85
2024/04/14 00:51:02;;;;;;;10.98;2.03;;;13.00;99.90;;;;;;5487842;26;20035;-85
2024/04/14 00:53:31;;;;;;;11.30;1.77;;;13.00;99.90;;;;;;5457585;26;20018;-85
2024/04/14 00:55:58;;;;;;;11.55;2.25;;;12.80;99.90;;;;;;5466243;26;20341;-85
2024/04/14 00:58:25;;;;;;;8.43;1.77;;;12.80;99.90;;;;;;5439166;26;20347;-85
2024/04/14 01:01:11;;;;;;;8.88;1.70;;;12.90;99.90;;;;;;5462020;26;20083;-85
2024/04/14 01:03:38;;;;;;;9.35;1.83;;;12.70;99.90;;;;;;5466173;26;20007;-85
2024/04/14 01:06:05;;;;;;;9.93;1.60;;;12.70;99.90;;;;;;5471739;26;20022;-85
2024/04/14 01:08:32;;;;;;;9.80;2.00;;;12.50;99.90;;;;;;5437835;26;20014;-85
2024/04/14 01:10:59;;;;;;;8.15;1.70;;;12.40;99.90;;;;;;5432442;26;20006;-85
2024/04/14 01:13:26;;;;;;;8.82;1.63;;;12.40;99.90;;;;;;5433890;26;20008;-85
2024/04/14 01:15:53;;;;;;;8.95;1.70;;;12.40;99.90;;;;;;5460802;26;20031;-85
2024/04/14 01:18:20;;;;;;;9.75;1.90;;;12.40;99.90;;;;;;5454375;26;20003;-85
2024/04/14 01:20:47;;;;;;;8.75;1.73;;;12.30;99.90;;;;;;5444411;26;20032;-86
2024/04/14 01:23:16;;;;;;;6.90;1.60;;;12.20;99.90;;;;;;5461773;26;20026;-85
2024/04/14 01:25:43;;;;;;;8.15;1.60;;;12.10;99.90;;;;;;5487441;26;20356;-86
2024/04/14 01:28:12;;;;;;;8.85;1.77;;;12.10;99.90;;;;;;5475980;26;20391;-85
2024/04/14 01:30:39;;;;;;;9.13;1.70;;;12.00;99.90;;;;;;5457008;26;20013;-86
2024/04/14 01:33:06;;;;;;;8.35;1.45;;;12.00;99.90;;;;;;5461377;26;20022;-85
2024/04/14 01:35:33;;;;;;;9.63;1.50;;;11.90;99.90;;;;;;5495219;26;20057;-85
2024/04/14 01:37:59;;;;;;;9.38;1.65;;;11.90;99.90;;;;;;5461039;26;20083;-86
2024/04/14 01:40:26;;;;;;;11.38;1.50;;;11.80;99.90;;;;;;5461374;26;20015;-86
2024/04/14 01:43:13;;;;;;;8.10;1.52;;;11.80;99.90;;;;;;5440168;26;20003;-86
2024/04/14 01:46:00;;;;;;;10.85;1.77;;;11.70;99.90;;;;;;5430294;26;20377;-86
2024/04/14 01:48:27;;;;;;;11.32;1.60;;;11.70;99.90;;;;;;5451975;26;20007;-85
2024/04/14 01:50:54;;;;;;;11.30;1.60;;;11.70;99.90;;;;;;5448581;26;20007;-85
2024/04/14 01:53:40;;;;;;;6.15;1.52;;;11.70;99.90;;;;;;5425481;26;20010;-86
2024/04/14 01:56:07;;;;;;;10.25;1.73;;;11.60;99.90;;;;;;5461282;26;20733;-86
2024/04/14 01:58:34;;;;;;;8.07;1.55;;;11.60;99.90;;;;;;5491850;26;20080;-85
2024/04/14 02:01:00;;;;;;;9.50;1.88;;;11.60;99.90;;;;;;5459479;26;20413;-85
2024/04/14 02:03:27;;;;;;;8.63;1.63;;;11.60;99.90;;;;;;5424731;26;20080;-85
2024/04/14 02:05:58;;;;;;;9.25;1.73;;;11.60;99.90;;;;;;5456179;26;20484;-85
2024/04/14 02:08:25;;;;;;;7.50;1.60;;;11.50;99.90;;;;;;5427973;26;20007;-85
2024/04/14 02:10:52;;;;;;;6.75;1.95;;;11.40;99.90;;;;;;5450195;26;20006;-85
2024/04/14 02:13:19;;;;;;;10.40;1.77;;;11.40;99.90;;;;;;5490803;26;20012;-86
2024/04/14 02:15:46;;;;;;;11.75;1.88;;;11.40;99.90;;;;;;5442299;26;20007;-86
2024/04/14 02:18:14;;;;;;;8.88;1.65;;;11.30;99.90;;;;;;5492218;26;20052;-85
2024/04/14 02:20:43;;;;;;;9.63;1.83;;;11.20;99.90;;;;;;5441770;26;20004;-85
2024/04/14 02:23:10;;;;;;;8.70;1.45;;;11.20;99.90;;;;;;5480028;26;20015;-85
2024/04/14 02:25:57;;;;;;;8.35;1.65;;;11.10;99.90;;;;;;5461759;26;20003;-85
2024/04/14 02:28:24;;;;;;;10.85;2.13;;;11.50;99.90;;;;;;5490617;26;20409;-85
2024/04/14 02:30:51;;;;;;;7.47;1.40;;;11.30;99.90;;;;;;5459138;26;20039;-85
2024/04/14 02:33:18;;;;;;;8.93;1.33;;;11.00;99.90;;;;;;5447431;26;20406;-85
2024/04/14 02:35:59;;;;;;;10.25;1.80;;;11.00;99.90;;;;;;5460766;26;20083;-86
2024/04/14 02:38:26;;;;;;;10.70;2.03;;;10.90;99.90;;;;;;5455538;26;20031;-85
2024/04/14 02:41:01;;;;;;;10.52;1.55;;;10.90;99.90;;;;;;5436748;26;20002;-84
2024/04/14 02:43:29;;;;;;;7.28;1.48;;;10.80;99.90;;;;;;5438776;26;20018;-85
2024/04/14 02:46:15;;;;;;;10.10;1.40;;;10.80;99.90;;;;;;5405435;26;20016;-85
2024/04/14 02:49:02;;;;;;;11.93;1.98;;;10.70;99.90;;;;;;5427108;26;20003;-85
2024/04/14 02:51:49;;;;;;;9.55;1.45;;;10.70;99.90;;;;;;5439415;26;20018;-85
2024/04/14 02:54:35;;;;;;;9.50;1.73;;;10.70;99.90;;;;;;5435594;26;20014;-85
2024/04/14 02:57:03;;;;;;;9.70;1.73;;;10.60;99.90;;;;;;5468355;26;20003;-85
2024/04/14 02:59:49;;;;;;;11.77;1.75;;;10.50;99.90;;;;;;5465425;26;20042;-85
2024/04/14 03:02:17;;;;;;;18.77;1.52;;;10.40;99.90;;;;;;5437096;26;20083;-85
2024/04/14 03:04:50;;;;;;;12.27;1.70;;;10.40;99.90;;;;;;5459889;26;20018;-85
2024/04/14 03:07:16;;;;;;;12.50;1.90;;;10.40;99.90;;;;;;5491732;26;20090;-85
2024/04/14 03:09:44;;;;;;;13.70;1.70;;;10.30;99.90;;;;;;5460005;26;20017;-84
2024/04/14 03:12:30;;;;;;;9.43;1.50;;;10.20;99.90;;;;;;5443902;26;20014;-85
2024/04/14 03:14:57;;;;;;;8.70;1.20;;;10.30;99.90;;;;;;5452077;26;20015;-85
2024/04/14 03:17:44;;;;;;;7.40;1.40;;;10.20;99.90;;;;;;5446706;26;20899;-85
2024/04/14 03:20:32;;;;;;;8.80;1.33;;;10.20;99.90;;;;;;5433383;26;20007;-85
2024/04/14 03:23:19;;;;;;;11.93;1.75;;;10.20;99.90;;;;;;5452911;26;20080;-85
2024/04/14 03:26:06;;;;;;;9.00;1.45;;;10.10;99.90;;;;;;5435932;26;20026;-85
2024/04/14 03:28:54;;;;;;;14.48;2.47;;;10.30;99.90;;;;;;5461155;26;20035;-85
2024/04/14 03:31:41;;;;;;;7.45;1.65;;;10.10;99.90;;;;;;5429294;26;20463;-85
2024/04/14 03:34:27;;;;;;;9.95;1.45;;;10.00;99.90;;;;;;5465072;26;20014;-85
2024/04/14 03:37:14;;;;;;;11.88;1.88;;;10.00;99.90;;;;;;5464657;26;20017;-85
2024/04/14 03:40:02;;;;;;;12.02;1.77;;;10.00;99.90;;;;;;5414811;26;20017;-85
2024/04/14 03:42:49;;;;;;;9.63;1.60;;;9.90;99.90;;;;;;5435681;26;20022;-85
2024/04/14 03:45:41;;;;;;;10.05;1.48;;;9.90;99.90;;;;;;5449076;26;20010;-85
2024/04/14 03:48:27;;;;;;;10.88;1.50;;;9.90;99.90;;;;;;5412374;26;20003;-85
2024/04/14 03:51:16;;;;;;;9.50;1.33;;;10.10;99.90;;;;;;5438041;26;20099;-85
2024/04/14 03:54:02;;;;;;;9.23;1.55;;;9.80;99.90;;;;;;5423001;26;20018;-85
2024/04/14 03:56:49;;;;;;;6.25;1.30;;;9.70;99.90;;;;;;5428926;26;20018;-85
2024/04/14 03:59:36;;;;;;;13.68;2.15;;;9.70;99.90;;;;;;5426031;26;20341;-85
2024/04/14 04:02:23;;;;;;;11.63;1.38;;;9.70;99.90;;;;;;5456100;26;20015;-85
2024/04/14 04:05:10;;;;;;;8.70;1.60;;;9.70;99.90;;;;;;5444525;26;20028;-85
2024/04/14 04:07:57;;;;;;;11.02;1.65;;;9.70;99.90;;;;;;5439467;26;20002;-85
2024/04/14 04:10:44;;;;;;;7.78;1.40;;;9.70;99.90;;;;;;5420795;26;20014;-85
2024/04/14 04:13:31;;;;;;;9.10;1.60;;;9.70;99.90;;;;;;5435936;26;20003;-84
2024/04/14 04:16:18;;;;;;;8.30;1.38;;;9.60;99.90;;;;;;5424716;26;20069;-85
2024/04/14 04:19:05;;;;;;;6.85;1.30;;;9.50;99.90;;;;;;5425223;26;20013;-85
2024/04/14 04:21:52;;;;;;;9.25;1.17;;;9.50;99.90;;;;;;5434151;26;20003;-85
2024/04/14 04:24:39;;;;;;;8.75;1.35;;;9.50;99.90;;;;;;5429808;26;20430;-85
2024/04/14 04:27:26;;;;;;;12.55;1.88;;;9.90;99.90;;;;;;5454000;26;20012;-85
2024/04/14 04:30:14;;;;;;;10.65;1.30;;;9.50;99.90;;;;;;5442404;26;20031;-85
2024/04/14 04:32:41;;;;;;;13.38;2.28;;;9.50;99.90;;;;;;5485644;26;20392;-85
2024/04/14 04:35:08;;;;;;;14.75;2.13;;;9.50;99.90;;;;;;5458165;26;20017;-85
2024/04/14 04:37:34;;;;;;;9.10;1.40;;;9.50;99.90;;;;;;5457965;26;20043;-85
2024/04/14 04:40:01;;;;;;;6.45;1.58;;;9.50;99.90;;;;;;5466127;26;20015;-85
2024/04/14 04:42:28;;;;;;;6.65;1.30;;;9.40;99.90;;;;;;5457784;26;20091;-85
2024/04/14 04:44:54;;;;;;;10.05;1.58;;;9.40;99.90;;;;;;5446125;26;20007;-86
2024/04/14 04:47:21;;;;;;;9.23;1.40;;;9.50;99.90;;;;;;5427600;26;20018;-85
2024/04/14 04:49:48;;;;;;;9.85;1.67;;;9.40;99.90;;;;;;5487994;26;20481;-85
2024/04/14 04:52:15;;;;;;;7.97;1.75;;;9.40;99.90;;;;;;5466585;26;20351;-85
2024/04/14 04:54:41;;;;;;;8.70;1.42;;;9.40;99.90;;;;;;5474224;26;20019;-85
2024/04/14 04:57:08;;;;;;;12.13;1.65;;;9.40;99.90;;;;;;5432101;26;20083;-85
2024/04/14 04:59:35;;;;;;;7.93;1.40;;;9.40;99.90;;;;;;5453873;26;20013;-85
2024/04/14 05:02:22;;;;;;;8.10;1.80;;;9.30;99.90;;;;;;5434935;26;20003;-86
2024/04/14 05:04:55;;;;;;;6.88;1.20;;;9.90;99.90;;;;;;5436972;26;20360;-85
2024/04/14 05:07:32;;;;;;;11.63;1.75;;;9.40;99.90;;;;;;5424336;26;20019;-85
2024/04/14 05:09:59;;;;;;;8.65;1.70;;;9.40;99.90;;;;;;5445727;26;20010;-85
2024/04/14 05:12:25;;;;;;;7.97;1.27;;;9.40;99.90;;;;;;5466831;26;20075;-85
2024/04/14 05:14:52;;;;;;;7.70;1.48;;;9.40;99.90;;;;;;5451616;26;20007;-85
2024/04/14 05:17:19;;;;;;;15.70;1.60;;;9.40;99.90;;;;;;5432901;26;20006;-85
2024/04/14 05:19:46;;;;;;;5.82;1.27;;;9.40;99.90;;;;;;5434460;26;20015;-85
2024/04/14 05:22:18;;;;;;;7.80;1.45;;;9.40;99.90;;;;;;5463574;26;20483;-85
2024/04/14 05:24:45;;;;;;;5.32;1.40;;;9.40;99.90;;;;;;5419946;26;20015;-85
2024/04/14 05:27:15;;;;;;;6.97;1.25;;;9.40;99.90;;;;;;5448285;26;20021;-85
2024/04/14 05:29:48;;;;;;;8.60;1.60;;;9.40;99.90;;;;;;5443913;26;20007;-85
2024/04/14 05:32:16;;;;;;;7.63;1.60;;;9.40;99.90;;;;;;5457533;26;20087;-85
2024/04/14 05:34:43;;;;;;;11.95;1.55;;;9.40;99.90;;;;;;5459786;26;20007;-85
2024/04/14 05:37:12;;;;;;;9.35;1.40;;;9.50;99.90;;;;;;5484967;26;20469;-85
2024/04/14 05:39:39;;;;;;;8.65;2.30;;;9.50;99.90;;;;;;5470298;26;20084;-85
2024/04/14 05:42:05;;;;;;;6.65;1.55;;;9.50;99.90;;;;;;5469707;26;20020;-85
2024/04/14 05:44:33;;;;;;;13.50;1.90;;;9.50;99.90;;;;;;5457276;26;20007;-85
2024/04/14 05:47:00;;;;;;;9.55;1.73;;;9.60;99.90;;;;;;5433435;26;20480;-85
2024/04/14 05:49:27;;;;;;;5.80;1.42;;;9.60;99.90;;;;;;5462573;26;20049;-85
2024/04/14 05:51:54;;;;;;;9.82;1.42;;;9.60;99.90;;;;;;5485360;26;20079;-85
2024/04/14 05:54:21;;;;;;;11.43;1.40;;;9.70;99.90;;;;;;5436985;26;20453;-85
2024/04/14 05:56:48;;;;;;;10.80;1.70;;;9.70;99.90;;;;;;5461210;26;20079;-85
2024/04/14 05:59:14;;;;;;;10.90;1.90;;;9.80;99.90;;;;;;5460645;26;20536;-85
2024/04/14 06:01:41;;;;;;;9.88;2.50;;;9.80;99.90;;;;;;5495333;26;20014;-85
2024/04/14 06:04:08;;;;;;;7.65;1.45;;;9.80;99.90;;;;;;5461148;26;20006;-85
2024/04/14 06:06:35;;;;;;;9.18;2.05;;;9.80;99.90;;;;;;5438078;26;20003;-85
2024/04/14 06:09:23;;;;;;;5.95;1.63;;;9.80;99.90;;;;;;5422320;26;20015;-85
2024/04/14 06:11:50;;;;;;;13.85;1.95;;;9.80;99.90;;;;;;5432149;26;20019;-85
2024/04/14 06:14:17;;;;;;;11.60;2.10;;;9.80;99.90;;;;;;5481888;26;20351;-85
2024/04/14 06:16:44;;;;;;;8.32;1.70;;;9.80;99.90;;;;;;5460665;26;20101;-85
2024/04/14 06:19:10;;;;;;;5.80;1.20;;;9.80;99.90;;;;;;5455752;26;20030;-86
2024/04/14 06:21:38;;;;;;;10.70;1.38;;;9.90;99.90;;;;;;5453818;26;20026;-85
2024/04/14 06:24:06;;;;;;;8.52;1.70;;;9.90;99.90;;;;;;5403707;26;20003;-86
2024/04/14 06:26:32;;;;;;;13.18;1.63;;;9.90;99.90;;;;;;5474169;26;20084;-86
2024/04/14 06:28:59;;;;;;;12.18;1.65;;;9.90;99.90;;;;;;5449145;26;20007;-84
2024/04/14 06:31:26;;;;;;;9.70;1.80;;;10.00;99.90;;;;;;5430186;26;20701;-84
2024/04/14 06:33:53;;;;;;;11.65;1.88;;;9.50;99.90;;;;;;5438753;26;20023;-84
2024/04/14 06:36:20;;;;;;;7.85;1.67;;;10.40;99.90;;;;;;5460397;26;20006;-84
2024/04/14 06:38:46;;;;;;;6.82;1.38;;;10.00;99.90;;;;;;5456583;26;20011;-84
2024/04/14 06:41:13;;;;;;;7.05;1.38;;;10.00;99.90;;;;;;5424276;26;20018;-84
2024/04/14 06:43:40;;;;;;;10.90;1.83;;;10.00;99.90;;;;;;5445452;26;20015;-84
2024/04/14 06:46:06;;;;;;;8.13;1.70;;;10.00;99.90;;;;;;5441220;26;20014;-85
2024/04/14 06:48:33;;;;;;;11.68;1.80;;;10.10;99.90;;;;;;5441071;26;20104;-84
2024/04/14 06:51:00;;;;;;;9.90;1.35;;;10.10;99.90;;;;;;5486064;26;20007;-84
2024/04/14 06:53:27;;;;;;;9.35;1.35;;;10.10;99.90;;;;;;5424002;26;20017;-84
2024/04/14 06:55:55;;;;;;;8.85;1.45;;;10.20;99.90;;;;;;5456782;26;20021;-84
2024/04/14 06:58:22;;;;;;;13.40;2.00;;;10.20;99.90;;;;;;5442608;26;20006;-84
2024/04/14 07:00:49;;;;;;;9.77;1.35;;;10.20;99.90;;;;;;5459534;26;20035;-85
2024/04/14 07:03:16;;;;;;;9.13;1.63;;;10.20;99.90;;;;;;5446980;26;20079;-84
2024/04/14 07:05:42;;;;;;;10.35;1.60;;;10.20;99.90;;;;;;5491682;26;20425;-84
2024/04/14 07:08:09;;;;;;;11.82;1.73;;;10.30;99.90;;;;;;5450697;26;20497;-84
2024/04/14 07:10:36;;;;;;;5.78;1.38;;;10.30;99.90;;;;;;5424232;26;20011;-84
2024/04/14 07:13:03;;;;;;;12.52;1.98;;;10.30;99.90;;;;;;5478815;26;20084;-85
2024/04/14 07:15:30;;;;;;;9.45;1.45;;;10.30;99.90;;;;;;5455362;26;20463;-85
2024/04/14 07:17:57;;;;;;;12.90;2.17;;;10.50;99.90;;;;;;5468630;26;20452;-89
2024/04/14 07:20:23;;;;;;;10.15;1.63;;;10.50;99.90;;;;;;5443861;26;20047;-85
2024/04/14 07:22:51;;;;;;;11.48;1.17;;;10.50;99.90;;;;;;5435768;26;20007;-85
2024/04/14 07:25:18;;;;;;;10.30;1.60;;;10.60;99.90;;;;;;5491312;26;20013;-85
2024/04/14 07:27:46;;;;;;;7.22;1.20;;;10.60;99.90;;;;;;5446624;26;20007;-85
2024/04/14 07:30:13;;;;;;;6.47;1.27;;;10.70;99.90;;;;;;5473663;26;20460;-87
2024/04/14 07:32:40;;;;;;;6.50;1.60;;;10.80;99.90;;;;;;5468075;26;20006;-87
2024/04/14 07:35:07;;;;;;;7.35;1.42;;;10.90;99.90;;;;;;5457549;26;20035;-88
2024/04/14 07:37:33;;;;;;;8.45;1.45;;;11.00;99.90;;;;;;5438850;26;20007;-86
2024/04/14 07:40:00;;;;;;;6.00;1.42;;;11.10;99.90;;;;;;5476671;26;20079;-86
2024/04/14 07:42:27;;;;;;;7.65;1.20;;;11.10;99.90;;;;;;5451184;26;20084;-86
2024/04/14 07:44:54;;;;;;;4.13;0.85;;;11.10;99.90;;;;;;5451814;26;20006;-84
2024/04/14 07:47:23;;;;;;;9.15;1.75;;;11.10;99.90;;;;;;5475830;26;20018;-84
2024/04/14 07:49:50;;;;;;;5.32;1.25;;;11.20;99.90;;;;;;5457147;26;20019;-84
2024/04/14 07:52:17;;;;;;;6.90;1.27;;;11.20;99.90;;;;;;5433479;26;20007;-84
2024/04/14 07:54:44;;;;;;;7.57;1.17;;;11.30;99.90;;;;;;5463586;26;20007;-84
2024/04/14 07:57:11;;;;;;;9.20;1.77;;;11.30;99.90;;;;;;5425802;26;20007;-84
2024/04/14 07:59:38;;;;;;;8.15;1.20;;;11.40;99.90;;;;;;5458950;26;20464;-84
2024/04/14 08:02:05;;;;;;;4.78;1.00;;;11.40;99.90;;;;;;5455919;26;20007;-84
2024/04/14 08:04:31;;;;;;;6.18;1.02;;;11.50;99.90;;;;;;5443999;26;20347;-84
2024/04/14 08:06:58;;;;;;;6.30;1.45;;;12.00;99.90;;;;;;5435863;26;20017;-84
2024/04/14 08:09:25;;;;;;;8.48;1.27;;;11.60;99.90;;;;;;5490771;26;20014;-85
2024/04/14 08:11:52;;;;;;;9.13;1.52;;;11.70;99.90;;;;;;5480576;26;20007;-86
2024/04/14 08:14:19;;;;;;;5.55;1.40;;;11.70;99.90;;;;;;5493162;26;20030;-85
2024/04/14 08:16:45;;;;;;;7.47;1.20;;;11.80;99.90;;;;;;5452886;26;20008;-85
2024/04/14 08:19:12;;;;;;;3.50;0.82;;;12.10;99.90;;;;;;5454706;26;20478;-84
2024/04/14 08:21:40;;;;;;;8.52;1.17;;;11.90;99.90;;;;;;5490745;26;20043;-85
2024/04/14 08:24:08;;;;;;;7.43;1.42;;;12.10;99.90;;;;;;5440628;26;20088;-84
2024/04/14 08:26:35;;;;;;;6.95;1.27;;;12.10;99.90;;;;;;5457419;26;20003;-85
2024/04/14 08:29:02;;;;;;;16.10;1.80;;;12.20;99.90;;;;;;5458479;26;20484;-86
2024/04/14 08:31:29;;;;;;;8.30;1.00;;;12.30;99.90;;;;;;5446549;26;20038;-86
2024/04/14 08:33:56;;;;;;;5.80;1.27;;;12.30;99.90;;;;;;5455484;26;20083;-86
2024/04/14 08:36:22;;;;;;;5.05;1.20;;;12.40;99.90;;;;;;5457555;26;20023;-86
2024/04/14 08:38:49;;;;;;;2.38;0.82;;;12.40;99.90;;;;;;5435004;26;20003;-86
2024/04/14 08:41:20;;;;;;;4.70;0.90;;;12.40;99.90;;;;;;5490483;26;20385;-86
2024/04/14 08:43:47;;;;;;;8.38;1.02;;;12.60;99.90;;;;;;5454041;26;20019;-85
2024/04/14 08:46:16;;;;;;;6.28;1.00;;;12.60;99.90;;;;;;5447157;26;20015;-85
2024/04/14 08:48:47;;;;;;;7.88;1.33;;;12.70;99.90;;;;;;5431831;26;20035;-84
2024/04/14 08:51:14;;;;;;;5.75;1.13;;;12.80;99.90;;;;;;5459057;26;20014;-86
2024/04/14 08:53:42;;;;;;;6.63;1.17;;;13.10;99.90;;;;;;5451564;26;19999;-86
2024/04/14 08:56:10;;;;;;;9.00;1.13;;;12.90;99.90;;;;;;5429346;26;20017;-85
2024/04/14 08:58:39;;;;;;;4.47;1.25;;;13.00;99.90;;;;;;5452744;26;20056;-86
2024/04/14 09:01:10;;;;;;;5.88;0.95;;;13.30;99.90;;;;;;5446807;26;20472;-84
2024/04/14 09:03:36;;;;;;;6.70;1.15;;;13.30;99.90;;;;;;5453433;26;20813;-85
2024/04/14 09:06:08;;;;;;;4.45;0.80;;;13.40;99.90;;;;;;5465553;26;20022;-84
2024/04/14 09:08:35;;;;;;;3.85;1.00;;;13.40;99.90;;;;;;5480599;26;20022;-85
2024/04/14 09:11:05;;;;;;;7.13;1.50;;;13.60;99.90;;;;;;5435653;26;20002;-85
2024/04/14 09:13:32;;;;;;;4.82;1.23;;;13.50;99.90;;;;;;5429929;26;20018;-85
2024/04/14 09:15:59;;;;;;;5.90;1.33;;;13.50;99.90;;;;;;5447244;26;20035;-85
2024/04/14 09:18:26;;;;;;;3.92;0.80;;;13.60;99.90;;;;;;5452542;26;20019;-85
2024/04/14 09:20:52;;;;;;;6.22;1.20;;;13.70;99.90;;;;;;5486362;26;20018;-85
2024/04/14 09:23:19;;;;;;;4.20;1.17;;;13.70;99.90;;;;;;5465538;26;20007;-85
2024/04/14 09:25:46;;;;;;;7.03;1.25;;;13.70;99.90;;;;;;5469458;26;20006;-85
2024/04/14 09:28:16;;;;;;;5.13;1.20;;;13.80;99.90;;;;;;5510786;26;20002;-85
2024/04/14 09:30:42;;;;;;;4.65;1.10;;;13.50;99.90;;;;;;5473858;26;20007;-85
2024/04/14 09:33:11;;;;;;;7.18;1.10;;;13.60;99.90;;;;;;5454858;26;20061;-85
2024/04/14 09:35:38;;;;;;;3.95;1.00;;;13.80;99.90;;;;;;5447742;26;20006;-85
2024/04/14 09:38:06;;;;;;;3.47;0.88;;;13.40;99.90;;;;;;5481063;26;20026;-85
2024/04/14 09:40:35;;;;;;;8.57;1.17;;;13.40;99.90;;;;;;5425228;26;20007;-85
2024/04/14 09:43:03;;;;;;;5.00;1.20;;;13.20;99.90;;;;;;5460700;26;20467;-84
2024/04/14 09:45:31;;;;;;;3.85;0.90;;;13.30;99.90;;;;;;5460553;26;20043;-85
2024/04/14 09:47:59;;;;;;;4.00;1.10;;;13.10;99.90;;;;;;5485707;26;20084;-85
2024/04/14 09:50:29;;;;;;;6.07;1.30;;;13.10;99.90;;;;;;5498662;26;20023;-85
2024/04/14 09:52:57;;;;;;;6.05;1.20;;;13.10;99.90;;;;;;5465585;26;20052;-85
2024/04/14 09:55:23;;;;;;;8.88;1.30;;;13.60;99.90;;;;;;5451597;26;20007;-85
2024/04/14 09:57:50;;;;;;;5.75;1.25;;;13.40;99.90;;;;;;5427960;26;20008;-85
2024/04/14 10:00:18;;;;;;;6.47;1.38;;;13.30;99.90;;;;;;5474083;26;20014;-84
2024/04/14 10:02:48;;;;;;;2.95;1.08;;;13.40;99.90;;;;;;5460401;26;20018;-85
2024/04/14 10:05:17;;;;;;;7.50;1.00;;;13.50;99.90;;;;;;5445474;26;20008;-85
2024/04/14 10:07:44;;;;;;;7.72;1.20;;;13.50;99.90;;;;;;5454262;26;20007;-85
2024/04/14 10:10:11;;;;;;;5.07;0.98;;;14.00;99.90;;;;;;5458173;26;20014;-85
2024/04/14 10:12:38;;;;;;;8.63;1.20;;;13.90;99.90;;;;;;5460491;26;20031;-85
2024/04/14 10:15:06;;;;;;;7.50;1.13;;;14.10;99.90;;;;;;5457575;26;20017;-85
2024/04/14 10:17:33;;;;;;;9.30;1.50;;;14.30;99.90;;;;;;5470202;26;20075;-85
2024/04/14 10:20:03;;;;;;;6.07;1.50;;;14.40;99.90;;;;;;5467473;26;20038;-86
2024/04/14 10:22:38;;;;;;;5.05;1.02;;;14.60;99.90;;;;;;5452842;26;20018;-86
2024/04/14 10:25:05;;;;;;;5.50;1.15;;;14.40;99.90;;;;;;5471965;26;20005;-86
2024/04/14 10:27:36;;;;;;;5.90;1.27;;;14.50;99.90;;;;;;5446342;26;20012;-85
2024/04/14 10:30:05;;;;;;;5.55;1.15;;;14.70;99.90;;;;;;5432569;26;20004;-86
2024/04/14 10:32:32;;;;;;;3.78;0.90;;;14.70;99.90;;;;;;5435399;26;20021;-85
2024/04/14 10:34:59;;;;;;;5.80;1.00;;;14.80;99.50;;;;;;5473034;26;20007;-85
2024/04/14 10:37:27;;;;;;;4.50;0.98;;;14.70;98.30;;;;;;5445357;26;20018;-85
2024/04/14 10:39:55;;;;;;;4.53;1.02;;;14.70;98.20;;;;;;5459064;26;20006;-86
2024/04/14 10:42:25;;;;;;;3.38;0.70;;;15.00;99.50;;;;;;5436291;26;20466;-86
2024/04/14 10:44:55;;;;;;;6.03;1.10;;;15.10;97.80;;;;;;5436258;26;20092;-86
2024/04/14 10:47:22;;;;;;;2.60;0.70;;;14.90;96.10;;;;;;5456745;26;20054;-85
2024/04/14 10:49:50;;;;;;;3.20;0.77;;;14.80;97.40;;;;;;5449783;26;20007;-85
2024/04/14 10:52:17;;;;;;;7.97;1.00;;;14.90;98.10;;;;;;5436773;26;20008;-87
2024/04/14 10:54:44;;;;;;;4.32;0.80;;;14.70;96.30;;;;;;5438116;26;20085;-86
2024/04/14 10:57:13;;;;;;;4.53;1.13;;;14.70;97.20;;;;;;5491789;26;20481;-86
2024/04/14 10:59:40;;;;;;;4.97;0.95;;;14.80;97.70;;;;;;5490856;26;20017;-85
2024/04/14 11:02:07;;;;;;;5.63;1.15;;;15.00;98.00;;;;;;5449765;26;20352;-86
2024/04/14 11:04:35;;;;;;;3.53;0.85;;;15.20;96.30;;;;;;5518904;26;20343;-86
2024/04/14 11:07:02;;;;;;;5.22;1.00;;;15.20;96.80;;;;;;5449271;26;20082;-86
2024/04/14 11:09:30;;;;;;;4.35;0.95;;;14.90;97.00;;;;;;5489793;26;20007;-85
2024/04/14 11:11:58;;;;;;;2.65;0.73;;;14.80;96.70;;;;;;5453175;26;20008;-86
2024/04/14 11:14:25;;;;;;;3.17;0.77;;;14.30;96.10;;;;;;5451506;26;20083;-85
2024/04/14 11:16:52;;;;;;;2.35;0.70;;;14.50;97.50;;;;;;5441660;26;20021;-86
2024/04/14 11:19:20;;;;;;;3.45;0.80;;;14.50;96.40;;;;;;5430816;26;20084;-85
2024/04/14 11:21:48;;;;;;;4.55;0.90;;;14.60;96.90;;;;;;5452995;26;20007;-85
2024/04/14 11:24:15;;;;;;;4.55;0.93;;;14.50;96.70;;;;;;5452501;26;20080;-85
2024/04/14 11:26:42;;;;;;;9.05;1.15;;;14.70;97.50;;;;;;5478963;26;20417;-85
2024/04/14 11:29:09;;;;;;;4.30;0.70;;;14.80;97.30;;;;;;5452692;26;20055;-85
2024/04/14 11:31:37;;;;;;;7.05;0.98;;;14.80;97.40;;;;;;5476710;26;20003;-86
2024/04/14 11:34:04;;;;;;;5.03;1.10;;;14.80;98.00;;;;;;5440993;26;20023;-86
2024/04/14 11:36:34;;;;;;;8.20;1.25;;;14.60;97.20;;;;;;5468292;26;20007;-87
2024/04/14 11:39:04;;;;;;;5.07;0.90;;;14.30;97.60;;;;;;5459588;26;20007;-86
2024/04/14 11:41:32;;;;;;;2.95;0.80;;;14.40;97.90;;;;;;5485853;26;20022;-87
2024/04/14 11:43:59;;;;;;;4.43;1.00;;;14.50;97.10;;;;;;5482349;26;20018;-86
2024/04/14 11:46:26;;;;;;;4.95;1.00;;;14.80;97.20;;;;;;5436890;26;20007;-85
2024/04/14 11:48:52;;;;;;;4.38;0.80;;;14.80;97.00;;;;;;5459214;26;20007;-85
2024/04/14 11:51:19;;;;;;;6.05;1.10;;;14.90;96.50;;;;;;5458648;26;20006;-86
2024/04/14 11:53:46;;;;;;;4.15;1.08;;;14.90;96.70;;;;;;5441759;26;20017;-86
2024/04/14 11:56:13;;;;;;;7.20;1.10;;;14.90;96.20;;;;;;5451841;26;20018;-86
2024/04/14 11:58:39;;;;;;;5.25;1.13;;;14.70;96.60;;;;;;5442293;26;20455;-86
2024/04/14 12:01:07;;;;;;;9.07;1.40;;;14.80;97.30;;;;;;5443160;26;20025;-86
2024/04/14 12:03:33;;;;;;;4.13;1.10;;;14.60;96.30;;;;;;5459331;26;20019;-86
2024/04/14 12:06:00;;;;;;;4.05;1.00;;;14.90;96.80;;;;;;5473872;26;20422;-86
2024/04/14 12:08:27;;;;;;;5.03;1.30;;;15.00;97.10;;;;;;5434891;26;20082;-85
2024/04/14 12:10:54;;;;;;;5.85;1.35;;;15.10;97.60;;;;;;5485315;26;20017;-85
2024/04/14 12:13:20;;;;;;;4.10;0.73;;;15.20;97.90;;;;;;5455819;26;20007;-85
2024/04/14 12:15:49;;;;;;;3.33;0.93;;;15.20;96.90;;;;;;5454734;26;20014;-86
2024/04/14 12:18:18;;;;;;;4.35;0.90;;;15.30;97.30;;;;;;5432857;26;20007;-86
2024/04/14 12:20:44;;;;;;;3.70;0.73;;;15.00;96.80;;;;;;5458435;26;20043;-86
2024/04/14 12:23:11;;;;;;;6.40;1.23;;;15.30;97.20;;;;;;5447164;26;20017;-86
2024/04/14 12:25:38;;;;;;;4.85;1.00;;;15.30;96.00;;;;;;5489304;26;20022;-86
2024/04/14 12:28:07;;;;;;;4.53;1.13;;;15.40;95.90;;;;;;5458356;26;20021;-86
2024/04/14 12:30:36;;;;;;;4.03;0.88;;;15.40;96.40;;;;;;5484359;26;20030;-86
2024/04/14 12:33:04;;;;;;;5.93;1.00;;;15.30;96.90;;;;;;5458482;26;20014;-86
2024/04/14 12:35:31;;;;;;;8.02;1.40;;;15.30;97.30;;;;;;5450563;26;20007;-86
2024/04/14 12:37:57;;;;;;;6.10;1.02;;;15.00;97.20;;;;;;5490132;26;20018;-86
2024/04/14 12:40:24;;;;;;;5.32;1.15;;;14.70;96.50;;;;;;5454085;26;20015;-86
2024/04/14 12:42:51;;;;;;;3.95;1.00;;;14.60;97.20;;;;;;5478555;26;20424;-86
2024/04/14 12:45:18;;;;;;;6.07;1.55;;;14.50;96.80;;;;;;5457666;26;20007;-86
2024/04/14 12:47:45;;;;;;;5.38;1.40;;;14.40;96.90;;;;;;5461734;26;20050;-86
2024/04/14 12:50:12;;;;;;;5.07;1.20;;;14.50;97.70;;;;;;5467801;26;20083;-86
2024/04/14 12:52:39;;;;;;;7.65;1.30;;;14.30;97.90;;;;;;5442754;26;20014;-86
2024/04/14 12:55:05;;;;;;;4.18;0.98;;;14.30;98.10;;;;;;5441200;26;20343;-85
2024/04/14 12:57:32;;;;;;;6.05;1.20;;;14.30;98.60;;;;;;5486500;26;20007;-85
2024/04/14 13:00:00;;;;;;;4.85;1.05;;;14.40;98.80;;;;;;5466151;26;20081;-85